createdAt,value
2022-11-26T00:02:28.065Z,176.40
2022-11-26T00:05:02.572Z,229.50
2022-11-26T00:07:36.056Z,199.90
2022-11-26T00:10:19.108Z,205.40
2022-11-26T00:15:25.255Z,175.60
2022-11-26T00:17:57.900Z,213.90
2022-11-26T00:23:05.501Z,194.90
2022-11-26T00:25:44.678Z,182.50
2022-11-26T00:28:27.324Z,216.50
2022-11-26T00:31:01.922Z,207.50
2022-11-26T00:33:36.454Z,220.90
2022-11-26T00:36:18.719Z,206.20
2022-11-26T00:38:55.173Z,248.40
2022-11-26T00:41:30.973Z,185.10
2022-11-26T00:44:03.944Z,160.50
2022-11-26T00:46:37.112Z,250.40
2022-11-26T00:49:10.228Z,162.20
2022-11-26T00:51:44.366Z,171.60
2022-11-26T00:54:20.536Z,185.60
2022-11-26T00:56:53.968Z,215.10
2022-11-26T00:59:26.918Z,173.10
2022-11-26T01:04:29.423Z,199.90
2022-11-26T01:07:01.863Z,166.60
2022-11-26T01:09:34.635Z,171.30
2022-11-26T01:12:14.043Z,161.70
2022-11-26T01:14:46.386Z,170.50
2022-11-26T01:17:18.939Z,223.80
2022-11-26T01:19:50.896Z,185.60
2022-11-26T01:22:25.571Z,210.10
2022-11-26T01:24:57.732Z,215.60
2022-11-26T01:27:30.846Z,162.90
2022-11-26T01:30:02.964Z,194.70
2022-11-26T01:32:35.520Z,174.60
2022-11-26T01:37:39.495Z,160.00
2022-11-26T01:40:40.440Z,182.00
2022-11-26T01:43:25.178Z,163.30
2022-11-26T01:45:59.908Z,184.10
2022-11-26T01:48:35.183Z,227.50
2022-11-26T01:51:11.742Z,208.50
2022-11-26T01:53:52.926Z,190.00
2022-11-26T01:56:32.242Z,216.20
2022-11-26T01:59:09.939Z,182.60
2022-11-26T02:01:42.397Z,166.90
2022-11-26T02:06:50.581Z,173.80
2022-11-26T02:09:26.050Z,186.10
2022-11-26T02:11:58.768Z,149.30
2022-11-26T02:14:35.820Z,162.70
2022-11-26T02:17:26.345Z,184.30
2022-11-26T02:20:36.402Z,228.90
2022-11-26T02:23:52.636Z,173.70
2022-11-26T02:26:49.470Z,154.40
2022-11-26T02:29:30.506Z,159.30
2022-11-26T02:32:10.137Z,158.20
2022-11-26T02:34:49.755Z,154.80
2022-11-26T02:37:26.616Z,151.10
2022-11-26T02:39:59.275Z,189.60
2022-11-26T02:42:33.136Z,179.40
2022-11-26T02:45:09.026Z,228.50
2022-11-26T02:47:47.032Z,158.30
2022-11-26T02:50:23.359Z,157.20
2022-11-26T02:52:58.502Z,159.40
2022-11-26T02:55:36.658Z,191.70
2022-11-26T02:58:09.862Z,181.30
2022-11-26T03:03:23.969Z,158.70
2022-11-26T03:05:59.127Z,158.80
2022-11-26T03:08:32.751Z,175.70
2022-11-26T03:11:06.207Z,175.10
2022-11-26T03:13:39.068Z,244.20
2022-11-26T03:16:13.456Z,146.60
2022-11-26T03:18:46.438Z,184.40
2022-11-26T03:21:18.533Z,238.60
2022-11-26T03:23:50.457Z,174.90
2022-11-26T03:26:22.867Z,162.60
2022-11-26T03:31:26.880Z,159.30
2022-11-26T03:33:59.777Z,171.40
2022-11-26T03:36:33.556Z,157.70
2022-11-26T03:39:06.495Z,171.40
2022-11-26T03:41:38.807Z,152.90
2022-11-26T03:44:10.662Z,140.20
2022-11-26T03:46:44.055Z,156.50
2022-11-26T03:49:17.542Z,187.50
2022-11-26T03:51:50.285Z,196.30
2022-11-26T03:56:54.138Z,161.90
2022-11-26T03:59:27.266Z,184.50
2022-11-26T04:01:59.437Z,183.60
2022-11-26T04:04:32.666Z,186.90
2022-11-26T04:07:04.506Z,182.70
2022-11-26T04:09:36.503Z,229.30
2022-11-26T04:12:09.161Z,215.80
2022-11-26T04:14:41.166Z,202.80
2022-11-26T04:17:13.406Z,208.90
2022-11-26T04:19:45.097Z,194.60
2022-11-26T04:22:17.458Z,202.40
2022-11-26T04:24:49.129Z,226.70
2022-11-26T04:27:21.994Z,178.30
2022-11-26T04:29:53.872Z,203.80
2022-11-26T04:32:25.694Z,127.70
2022-11-26T04:34:57.489Z,204.60
2022-11-26T04:37:29.341Z,171.00
2022-11-26T04:40:01.516Z,165.70
2022-11-26T04:42:34.676Z,162.60
2022-11-26T04:45:08.207Z,176.80
2022-11-26T04:47:42.958Z,181.90
2022-11-26T04:50:15.786Z,240.20
2022-11-26T04:52:48.619Z,248.60
2022-11-26T04:55:22.413Z,176.80
2022-11-26T04:57:55.091Z,187.30
2022-11-26T05:00:27.180Z,219.60
2022-11-26T05:02:59.186Z,183.00
2022-11-26T05:05:31.115Z,206.30
2022-11-26T05:08:03.053Z,149.70
2022-11-26T05:10:36.305Z,146.10
2022-11-26T05:13:08.350Z,169.30
2022-11-26T05:15:40.198Z,184.90
2022-11-26T05:18:12.351Z,159.00
2022-11-26T05:20:45.300Z,154.40
2022-11-26T05:23:17.415Z,144.00
2022-11-26T05:25:51.483Z,148.60
2022-11-26T05:28:23.433Z,130.60
2022-11-26T05:31:02.972Z,131.70
2022-11-26T05:33:34.961Z,141.10
2022-11-26T05:36:08.174Z,108.20
2022-11-26T05:38:40.704Z,141.40
2022-11-26T05:41:12.893Z,136.00
2022-11-26T05:43:45.984Z,149.90
2022-11-26T05:46:22.313Z,134.20
2022-11-26T05:48:54.914Z,156.60
2022-11-26T05:51:26.792Z,162.00
2022-11-26T05:53:59.171Z,116.20
2022-11-26T05:56:32.446Z,145.80
2022-11-26T05:59:05.203Z,135.60
2022-11-26T06:01:37.803Z,144.90
2022-11-26T06:04:10.034Z,149.00
2022-11-26T06:06:42.496Z,157.00
2022-11-26T06:09:14.970Z,142.30
2022-11-26T06:11:46.888Z,137.90
2022-11-26T06:14:20.256Z,169.60
2022-11-26T06:16:52.828Z,161.00
2022-11-26T06:19:27.129Z,177.00
2022-11-26T06:22:00.250Z,137.50
2022-11-26T06:24:33.903Z,132.40
2022-11-26T06:27:06.440Z,137.60
2022-11-26T06:29:40.508Z,146.80
2022-11-26T06:32:12.709Z,154.90
2022-11-26T06:34:45.547Z,140.20
2022-11-26T06:37:20.513Z,125.10
2022-11-26T06:42:24.206Z,136.00
2022-11-26T06:44:59.794Z,128.00
2022-11-26T06:47:33.545Z,138.40
2022-11-26T06:50:10.699Z,134.20
2022-11-26T06:52:45.199Z,138.40
2022-11-26T06:55:17.869Z,123.90
2022-11-26T06:57:53.523Z,116.10
2022-11-26T07:00:28.315Z,128.80
2022-11-26T07:03:02.600Z,117.30
2022-11-26T07:05:36.578Z,120.80
2022-11-26T07:08:10.331Z,141.90
2022-11-26T07:10:48.709Z,129.20
2022-11-26T07:13:21.417Z,133.30
2022-11-26T07:15:54.519Z,160.40
2022-11-26T07:18:27.318Z,136.00
2022-11-26T07:21:07.488Z,157.90
2022-11-26T07:23:40.607Z,158.70
2022-11-26T07:26:15.304Z,157.00
2022-11-26T07:28:49.009Z,150.00
2022-11-26T07:31:23.677Z,153.50
2022-11-26T07:33:57.160Z,152.00
2022-11-26T07:36:31.364Z,138.40
2022-11-26T07:39:05.620Z,146.00
2022-11-26T07:41:37.993Z,140.50
2022-11-26T07:44:15.106Z,116.10
2022-11-26T07:46:47.771Z,109.00
2022-11-26T07:49:20.615Z,114.30
2022-11-26T07:54:24.445Z,114.20
2022-11-26T07:56:57.252Z,123.50
2022-11-26T07:59:30.524Z,144.60
2022-11-26T08:02:03.839Z,141.10
2022-11-26T08:04:36.801Z,178.90
2022-11-26T08:07:12.050Z,152.80
2022-11-26T08:09:48.223Z,133.40
2022-11-26T08:12:21.681Z,142.90
2022-11-26T08:14:54.860Z,143.40
2022-11-26T08:17:27.870Z,159.70
2022-11-26T08:20:00.394Z,132.80
2022-11-26T08:22:34.028Z,150.60
2022-11-26T08:25:08.301Z,162.10
2022-11-26T08:27:40.755Z,149.40
2022-11-26T08:30:15.447Z,158.00
2022-11-26T08:32:47.518Z,157.50
2022-11-26T08:35:34.294Z,141.60
2022-11-26T08:38:13.877Z,120.00
2022-11-26T08:40:45.824Z,111.60
2022-11-26T08:43:18.659Z,118.90
2022-11-26T08:45:57.000Z,113.90
2022-11-26T08:48:32.045Z,121.10
2022-11-26T08:51:10.547Z,118.40
2022-11-26T08:53:43.255Z,133.60
2022-11-26T08:56:16.331Z,127.40
2022-11-26T08:58:49.003Z,127.30
2022-11-26T09:01:24.602Z,129.20
2022-11-26T09:03:58.557Z,129.30
2022-11-26T09:06:32.894Z,131.00
2022-11-26T09:09:15.790Z,114.80
2022-11-26T09:11:51.226Z,138.50
2022-11-26T09:14:26.116Z,116.30
2022-11-26T09:16:59.243Z,110.60
2022-11-26T09:19:31.815Z,117.20
2022-11-26T09:22:04.375Z,93.70
2022-11-26T09:27:11.045Z,94.60
2022-11-26T09:29:43.380Z,98.40
2022-11-26T09:32:25.035Z,104.30
2022-11-26T09:35:00.185Z,114.50
2022-11-26T09:37:33.456Z,95.60
2022-11-26T09:40:05.913Z,105.20
2022-11-26T09:42:53.884Z,123.60
2022-11-26T09:45:39.331Z,116.10
2022-11-26T09:48:16.837Z,73.40
2022-11-26T09:50:52.717Z,81.60
2022-11-26T09:53:28.332Z,92.60
2022-11-26T09:56:02.426Z,81.70
2022-11-26T09:58:41.854Z,81.30
2022-11-26T10:01:19.701Z,107.20
2022-11-26T10:03:53.843Z,120.90
2022-11-26T10:06:39.557Z,110.10
2022-11-26T10:09:44.336Z,108.40
2022-11-26T10:12:56.265Z,165.20
2022-11-26T10:15:38.834Z,126.80
2022-11-26T10:18:24.170Z,94.60
2022-11-26T10:21:12.462Z,92.40
2022-11-26T10:23:49.036Z,94.00
2022-11-26T10:26:25.763Z,96.90
2022-11-26T10:29:08.221Z,82.80
2022-11-26T10:31:47.467Z,87.10
2022-11-26T10:34:29.826Z,84.20
2022-11-26T10:37:03.427Z,83.00
2022-11-26T10:39:35.465Z,75.80
2022-11-26T10:42:14.856Z,77.90
2022-11-26T10:44:47.686Z,74.20
2022-11-26T10:53:25.138Z,86.20
2022-11-26T10:55:59.108Z,85.60
2022-11-26T10:58:34.623Z,81.80
2022-11-26T11:01:08.495Z,76.40
2022-11-26T11:06:44.689Z,80.80
2022-11-26T11:09:33.024Z,83.40
2022-11-26T11:12:23.609Z,80.30
2022-11-26T11:14:56.176Z,84.50
2022-11-26T11:17:33.753Z,83.90
2022-11-26T11:20:27.291Z,80.00
2022-11-26T11:23:06.791Z,76.30
2022-11-26T11:25:41.567Z,84.70
2022-11-26T11:28:20.575Z,74.60
2022-11-26T11:31:05.789Z,83.60
2022-11-26T11:33:38.374Z,90.90
2022-11-26T11:36:22.934Z,89.20
2022-11-26T11:38:56.107Z,79.90
2022-11-26T11:41:32.890Z,74.70
2022-11-26T11:44:14.460Z,74.00
2022-11-26T11:47:24.204Z,87.70
2022-11-26T11:50:20.772Z,78.40
2022-11-26T11:53:17.755Z,86.40
2022-11-26T11:56:19.084Z,83.10
2022-11-26T11:59:22.376Z,82.20
2022-11-26T12:02:17.264Z,84.90
2022-11-26T12:05:04.926Z,78.70
2022-11-26T12:07:49.055Z,73.60
2022-11-26T12:10:33.900Z,80.30
2022-11-26T12:13:14.259Z,76.80
2022-11-26T12:15:54.782Z,81.50
2022-11-26T12:18:32.499Z,85.60
2022-11-26T12:21:11.163Z,74.20
2022-11-26T12:23:49.996Z,81.20
2022-11-26T12:26:32.248Z,89.50
2022-11-26T12:29:11.913Z,73.90
2022-11-26T12:31:48.117Z,86.00
2022-11-26T12:34:30.177Z,94.00
2022-11-26T12:37:06.441Z,97.50
2022-11-26T12:39:51.916Z,88.60
2022-11-26T12:42:31.592Z,87.00
2022-11-26T12:45:19.190Z,113.70
2022-11-26T12:47:59.238Z,102.20
2022-11-26T12:50:40.120Z,86.60
2022-11-26T12:53:23.005Z,91.00
2022-11-26T12:58:45.698Z,108.00
2022-11-26T13:01:17.542Z,122.60
2022-11-26T13:03:49.527Z,95.60
2022-11-26T13:06:33.738Z,89.30
2022-11-26T13:09:22.897Z,90.80
2022-11-26T13:12:05.117Z,83.30
2022-11-26T13:14:42.825Z,91.00
2022-11-26T13:17:17.203Z,85.40
2022-11-26T13:19:53.003Z,87.00
2022-11-26T13:23:04.011Z,84.10
2022-11-26T13:25:53.450Z,83.50
2022-11-26T13:28:37.575Z,80.10
2022-11-26T13:31:29.785Z,77.50
2022-11-26T13:34:17.165Z,91.40
2022-11-26T13:37:11.418Z,76.50
2022-11-26T13:40:04.567Z,71.90
2022-11-26T13:45:58.852Z,80.20
2022-11-26T13:48:40.312Z,78.00
2022-11-26T13:51:19.723Z,84.50
2022-11-26T13:53:57.527Z,75.60
2022-11-26T13:56:32.851Z,77.20
2022-11-26T13:59:14.298Z,69.00
2022-11-26T14:01:47.692Z,85.40
2022-11-26T14:04:54.873Z,74.90
2022-11-26T14:07:27.733Z,73.00
2022-11-26T14:10:02.439Z,77.40
2022-11-26T14:13:11.672Z,80.00
2022-11-26T14:16:10.738Z,88.60
2022-11-26T14:19:08.667Z,88.50
2022-11-26T14:22:03.576Z,91.10
2022-11-26T14:25:05.278Z,83.50
2022-11-26T14:27:40.643Z,80.30
2022-11-26T14:30:29.938Z,81.90
2022-11-26T14:33:13.035Z,86.90
2022-11-26T14:35:56.885Z,77.10
2022-11-26T14:38:34.867Z,82.90
2022-11-26T14:41:06.792Z,89.60
2022-11-26T14:43:39.512Z,90.90
2022-11-26T14:46:17.994Z,94.60
2022-11-26T14:48:51.020Z,93.70
2022-11-26T14:51:28.033Z,94.40
2022-11-26T14:54:02.442Z,86.70
2022-11-26T14:56:41.810Z,84.40
2022-11-26T15:01:51.614Z,95.50
2022-11-26T15:04:29.247Z,86.90
2022-11-26T15:07:02.535Z,91.10
2022-11-26T15:09:35.083Z,91.40
2022-11-26T15:12:13.935Z,85.70
2022-11-26T15:14:49.980Z,81.80
2022-11-26T15:17:25.157Z,73.20
2022-11-26T15:19:59.335Z,71.50
2022-11-26T15:22:37.650Z,71.90
2022-11-26T15:25:18.497Z,78.30
2022-11-26T15:27:59.918Z,74.50
2022-11-26T15:30:33.399Z,85.60
2022-11-26T15:33:13.422Z,74.30
2022-11-26T15:35:46.756Z,73.80
2022-11-26T15:38:20.913Z,67.90
2022-11-26T15:40:56.977Z,78.90
2022-11-26T15:43:36.436Z,79.40
2022-11-26T15:46:18.035Z,83.10
2022-11-26T15:48:53.654Z,112.40
2022-11-26T15:51:35.553Z,86.70
2022-11-26T15:54:19.082Z,89.10
2022-11-26T15:56:56.493Z,85.50
2022-11-26T15:59:34.242Z,88.40
2022-11-26T16:02:19.608Z,86.40
2022-11-26T16:04:54.151Z,87.40
2022-11-26T16:07:29.691Z,86.90
2022-11-26T16:10:27.011Z,84.20
2022-11-26T16:13:23.225Z,91.30
2022-11-26T16:16:03.260Z,92.00
2022-11-26T16:18:42.763Z,90.30
2022-11-26T16:21:22.368Z,94.60
2022-11-26T16:24:02.152Z,87.90
2022-11-26T16:26:52.924Z,91.80
2022-11-26T16:29:25.025Z,81.30
2022-11-26T16:31:58.477Z,96.40
2022-11-26T16:34:31.443Z,104.10
2022-11-26T16:37:17.809Z,102.30
2022-11-26T16:39:54.089Z,100.50
2022-11-26T16:42:27.083Z,104.00
2022-11-26T16:45:03.936Z,112.10
2022-11-26T16:47:42.329Z,94.00
2022-11-26T16:50:20.427Z,104.90
2022-11-26T16:52:56.683Z,91.40
2022-11-26T16:55:29.673Z,87.90
2022-11-26T16:58:02.925Z,93.80
2022-11-26T17:00:36.760Z,92.10
2022-11-26T17:03:13.069Z,93.70
2022-11-26T17:05:46.651Z,91.20
2022-11-26T17:08:19.321Z,65.30
2022-11-26T17:10:52.736Z,93.50
2022-11-26T17:13:25.448Z,95.70
2022-11-26T17:15:58.740Z,84.80
2022-11-26T17:18:30.804Z,92.30
2022-11-26T17:21:04.066Z,94.90
2022-11-26T17:23:36.291Z,96.70
2022-11-26T17:26:19.192Z,94.60
2022-11-26T17:28:52.785Z,93.20
2022-11-26T17:31:24.581Z,86.70
2022-11-26T17:33:56.854Z,71.60
2022-11-26T17:36:36.447Z,99.70
2022-11-26T17:39:10.585Z,94.20
2022-11-26T17:41:42.898Z,87.50
2022-11-26T17:44:14.782Z,97.30
2022-11-26T17:47:15.788Z,93.30
2022-11-26T17:49:39.221Z,92.90
2022-11-26T17:52:11.379Z,96.70
2022-11-26T17:54:44.064Z,103.80
2022-11-26T17:59:47.280Z,95.00
2022-11-26T18:02:19.828Z,109.30
2022-11-26T18:07:22.714Z,114.90
2022-11-26T18:09:57.772Z,109.80
2022-11-26T18:12:34.407Z,106.80
2022-11-26T18:15:08.443Z,113.50
2022-11-26T18:17:41.384Z,110.30
2022-11-26T18:20:14.503Z,122.70
2022-11-26T18:22:50.356Z,124.60
2022-11-26T18:25:23.178Z,124.10
2022-11-26T18:27:55.372Z,135.00
2022-11-26T18:30:30.603Z,103.50
2022-11-26T18:33:03.420Z,139.40
2022-11-26T18:35:35.784Z,121.80
2022-11-26T18:38:11.029Z,117.40
2022-11-26T18:40:43.807Z,116.70
2022-11-26T18:43:17.028Z,115.90
2022-11-26T18:45:50.822Z,128.90
2022-11-26T18:48:22.877Z,145.10
2022-11-26T18:51:00.374Z,158.40
2022-11-26T18:53:32.070Z,154.00
2022-11-26T18:56:07.395Z,163.70
2022-11-26T18:58:39.493Z,151.60
2022-11-26T19:01:21.792Z,167.40
2022-11-26T19:03:55.139Z,160.30
2022-11-26T19:06:29.107Z,160.20
2022-11-26T19:09:03.089Z,145.30
2022-11-26T19:11:35.711Z,157.80
2022-11-26T19:14:07.821Z,155.20
2022-11-26T19:16:39.854Z,115.60
2022-11-26T19:19:11.947Z,106.30
2022-11-26T19:21:43.737Z,158.40
2022-11-26T19:24:15.557Z,156.60
2022-11-26T19:26:47.238Z,164.40
2022-11-26T19:29:18.945Z,147.90
2022-11-26T19:31:50.751Z,156.40
2022-11-26T19:34:23.013Z,138.90
2022-11-26T19:36:57.806Z,167.80
2022-11-26T19:39:29.624Z,160.50
2022-11-26T19:42:01.525Z,170.30
2022-11-26T19:44:34.547Z,150.40
2022-11-26T19:47:06.510Z,146.30
2022-11-26T19:49:38.606Z,139.30
2022-11-26T19:52:10.680Z,146.60
2022-11-26T19:54:42.498Z,142.70
2022-11-26T19:57:15.027Z,145.80
2022-11-26T19:59:46.989Z,145.00
2022-11-26T20:02:19.111Z,118.10
2022-11-26T20:04:51.461Z,147.50
2022-11-26T20:07:23.480Z,147.70
2022-11-26T20:09:55.696Z,111.80
2022-11-26T20:12:28.498Z,162.50
2022-11-26T20:15:00.653Z,157.00
2022-11-26T20:17:32.574Z,155.50
2022-11-26T20:20:05.361Z,158.80
2022-11-26T20:22:39.286Z,156.10
2022-11-26T20:25:15.351Z,173.00
2022-11-26T20:27:47.255Z,166.60
2022-11-26T20:30:20.261Z,119.10
2022-11-26T20:32:52.014Z,173.90
2022-11-26T20:35:24.439Z,175.10
2022-11-26T20:37:56.825Z,166.50
2022-11-26T20:40:29.213Z,150.60
2022-11-26T20:43:01.170Z,152.50
2022-11-26T20:45:33.323Z,145.80
2022-11-26T20:48:05.601Z,145.90
2022-11-26T20:50:38.709Z,145.40
2022-11-26T20:53:10.511Z,151.90
2022-11-26T20:55:42.184Z,167.30
2022-11-26T20:58:14.199Z,163.20
2022-11-26T21:00:46.284Z,166.70
2022-11-26T21:03:18.072Z,156.20
2022-11-26T21:05:50.076Z,144.20
2022-11-26T21:08:23.952Z,136.40
2022-11-26T21:10:56.266Z,140.20
2022-11-26T21:13:28.029Z,143.60
2022-11-26T21:16:02.202Z,90.00
2022-11-26T21:18:34.178Z,122.70
2022-11-26T21:21:11.599Z,102.50
2022-11-26T21:23:44.948Z,111.40
2022-11-26T21:26:19.460Z,107.30
2022-11-26T21:28:54.626Z,97.80
2022-11-26T21:31:30.123Z,103.10
2022-11-26T21:34:04.183Z,91.60
2022-11-26T21:36:37.944Z,102.90
2022-11-26T21:39:09.893Z,82.20
2022-11-26T21:41:42.475Z,87.00
2022-11-26T21:44:14.866Z,80.40
2022-11-26T21:46:46.805Z,88.20
2022-11-26T21:49:18.738Z,85.60
2022-11-26T21:51:51.785Z,60.20
2022-11-26T21:54:23.753Z,102.10
2022-11-26T21:56:55.609Z,59.30
2022-11-26T21:59:29.018Z,76.40
2022-11-26T22:02:01.116Z,89.80
2022-11-26T22:04:33.788Z,86.00
2022-11-26T22:07:06.139Z,86.90
2022-11-26T22:09:39.382Z,88.40
2022-11-26T22:12:12.798Z,88.30
2022-11-26T22:14:44.720Z,81.90
2022-11-26T22:17:17.232Z,88.70
2022-11-26T22:19:49.635Z,90.50
2022-11-26T22:22:22.339Z,100.40
2022-11-26T22:24:54.975Z,104.30
2022-11-26T22:27:26.822Z,92.50
2022-11-26T22:29:58.539Z,90.70
2022-11-26T22:32:30.356Z,88.50
2022-11-26T22:35:02.416Z,92.20
2022-11-26T22:37:34.340Z,83.90
2022-11-26T22:40:07.569Z,62.20
2022-11-26T22:42:40.938Z,98.10
2022-11-26T22:45:13.763Z,81.80
2022-11-26T22:50:21.669Z,100.70
2022-11-26T22:52:53.924Z,96.40
2022-11-26T22:55:25.708Z,95.40
2022-11-26T22:57:57.442Z,76.70
2022-11-26T23:00:51.096Z,100.40
2022-11-26T23:03:24.601Z,99.40
2022-11-26T23:05:57.319Z,99.30
2022-11-26T23:08:29.003Z,101.40
2022-11-26T23:11:05.440Z,98.30
2022-11-26T23:13:37.579Z,109.10
2022-11-26T23:16:11.158Z,104.90
2022-11-26T23:18:43.552Z,117.60
2022-11-26T23:21:17.386Z,107.40
2022-11-26T23:23:50.015Z,123.30
2022-11-26T23:29:00.845Z,111.50
2022-11-26T23:31:34.909Z,103.30
2022-11-26T23:34:07.780Z,103.30
2022-11-26T23:39:12.161Z,110.00
2022-11-26T23:41:44.765Z,106.30
2022-11-26T23:44:16.362Z,110.30
2022-11-26T23:46:48.411Z,102.50
2022-11-26T23:49:22.622Z,106.90
2022-11-26T23:51:54.263Z,114.20
2022-11-26T23:54:26.243Z,106.50
2022-11-26T23:56:58.022Z,112.80
2022-11-26T23:59:29.770Z,126.30
